createdAt,value
2023-03-29T00:02:50.213Z,100656.19
2023-03-29T00:07:54.213Z,100652.09
2023-03-29T00:12:55.916Z,100650.50
2023-03-29T00:17:58.103Z,100624.25
2023-03-29T00:22:59.764Z,100638.44
2023-03-29T00:28:01.357Z,100633.09
2023-03-29T00:33:05.380Z,100632.09
2023-03-29T00:38:07.024Z,100625.81
2023-03-29T00:43:13.690Z,100622.47
2023-03-29T00:48:18.164Z,100621.63
2023-03-29T00:53:41.151Z,100622.28
2023-03-29T00:58:57.540Z,100610.16
2023-03-29T01:04:08.474Z,100597.00
2023-03-29T01:09:14.656Z,100587.56
2023-03-29T01:14:28.396Z,100585.84
2023-03-29T01:19:38.710Z,100571.41
2023-03-29T01:24:55.098Z,100573.91
2023-03-29T01:30:02.090Z,100560.03
2023-03-29T01:35:25.003Z,100563.91
2023-03-29T01:40:28.258Z,100557.16
2023-03-29T01:45:29.766Z,100568.56
2023-03-29T01:50:49.976Z,100561.94
2023-03-29T01:56:04.516Z,100553.16
2023-03-29T02:01:10.476Z,100542.28
2023-03-29T02:06:14.365Z,100515.88
2023-03-29T02:11:16.221Z,100507.09
2023-03-29T02:16:18.497Z,100503.91
2023-03-29T02:21:27.988Z,100495.66
2023-03-29T02:26:29.655Z,100486.41
2023-03-29T02:31:43.162Z,100485.84
2023-03-29T02:36:51.945Z,100482.41
2023-03-29T02:41:54.675Z,100488.31
2023-03-29T02:47:03.163Z,100495.69
2023-03-29T02:52:10.809Z,100498.50
2023-03-29T02:57:12.452Z,100507.84
2023-03-29T03:02:14.106Z,100498.41
2023-03-29T03:07:20.059Z,100506.66
2023-03-29T03:12:21.690Z,100499.53
2023-03-29T03:17:23.317Z,100500.59
2023-03-29T03:22:26.416Z,100507.50
2023-03-29T03:27:30.318Z,100511.34
2023-03-29T03:32:34.305Z,100515.25
2023-03-29T03:37:58.838Z,100507.41
2023-03-29T03:43:00.568Z,100517.22
2023-03-29T03:48:02.212Z,100512.84
2023-03-29T03:53:16.077Z,100506.28
2023-03-29T03:58:37.825Z,100508.13
2023-03-29T04:03:41.006Z,100515.81
2023-03-29T04:08:47.988Z,100520.88
2023-03-29T04:14:00.324Z,100512.63
2023-03-29T04:19:12.137Z,100503.25
2023-03-29T04:24:16.521Z,100510.88
2023-03-29T04:29:29.162Z,100523.97
2023-03-29T04:34:44.274Z,100517.41
2023-03-29T04:39:46.493Z,100523.03
2023-03-29T04:44:48.887Z,100517.94
2023-03-29T04:49:58.220Z,100513.00
2023-03-29T04:55:11.674Z,100511.81
2023-03-29T05:00:27.076Z,100519.69
2023-03-29T05:05:53.301Z,100532.81
2023-03-29T05:10:58.342Z,100534.88
2023-03-29T05:16:03.684Z,100531.78
2023-03-29T05:21:06.393Z,100534.28
2023-03-29T05:26:10.008Z,100534.44
2023-03-29T05:31:16.155Z,100544.16
2023-03-29T05:36:20.911Z,100548.00
2023-03-29T05:41:26.301Z,100538.00
2023-03-29T05:46:47.824Z,100538.06
2023-03-29T05:51:52.407Z,100533.19
2023-03-29T05:56:54.034Z,100527.88
2023-03-29T06:01:55.724Z,100526.06
2023-03-29T06:06:57.479Z,100531.84
2023-03-29T06:11:59.454Z,100538.75
2023-03-29T06:17:12.337Z,100534.50
2023-03-29T06:22:14.987Z,100526.63
2023-03-29T06:27:17.608Z,100530.63
2023-03-29T06:32:19.953Z,100523.72
2023-03-29T06:37:49.963Z,100536.16
2023-03-29T06:43:20.980Z,100533.25
2023-03-29T06:48:33.407Z,100535.78
2023-03-29T06:53:38.059Z,100534.47
2023-03-29T06:58:40.932Z,100533.88
2023-03-29T07:04:00.249Z,100550.03
2023-03-29T07:09:07.887Z,100545.81
2023-03-29T07:14:30.085Z,100563.88
2023-03-29T07:19:32.204Z,100561.78
2023-03-29T07:24:47.032Z,100565.72
2023-03-29T07:29:50.012Z,100562.34
2023-03-29T07:34:52.766Z,100566.31
2023-03-29T07:40:18.705Z,100561.63
2023-03-29T07:45:44.964Z,100549.81
2023-03-29T07:50:48.398Z,100543.06
2023-03-29T07:55:54.741Z,100558.13
2023-03-29T08:01:19.867Z,100542.19
2023-03-29T08:06:51.479Z,100546.09
2023-03-29T08:11:55.563Z,100548.44
2023-03-29T08:17:03.003Z,100548.84
2023-03-29T08:22:06.273Z,100531.84
2023-03-29T08:27:26.599Z,100533.34
2023-03-29T08:32:28.728Z,100518.47
2023-03-29T08:37:31.776Z,100506.81
2023-03-29T08:42:52.285Z,100491.81
2023-03-29T08:48:06.995Z,100492.81
2023-03-29T08:53:31.798Z,100486.34
2023-03-29T08:58:58.418Z,100479.91
2023-03-29T09:04:20.165Z,100470.03
2023-03-29T09:09:33.853Z,100451.81
2023-03-29T09:14:56.283Z,100459.38
2023-03-29T09:20:21.215Z,100456.63
2023-03-29T09:25:52.621Z,100458.97
2023-03-29T09:31:01.911Z,100451.59
2023-03-29T09:36:10.085Z,100445.53
2023-03-29T09:41:21.471Z,100437.94
2023-03-29T09:46:34.323Z,100432.63
2023-03-29T09:51:36.729Z,100429.44
2023-03-29T09:56:39.575Z,100429.03
2023-03-29T10:01:48.256Z,100427.44
2023-03-29T10:06:52.569Z,100416.94
2023-03-29T10:12:06.786Z,100403.63
2023-03-29T10:17:23.515Z,100406.53
2023-03-29T10:22:27.715Z,100393.31
2023-03-29T10:27:34.548Z,100386.34
2023-03-29T10:32:38.474Z,100369.94
2023-03-29T10:37:45.018Z,100381.16
2023-03-29T10:42:49.949Z,100370.94
2023-03-29T10:47:51.926Z,100360.69
2023-03-29T10:52:53.811Z,100366.84
2023-03-29T10:58:09.626Z,100357.09
2023-03-29T11:03:17.040Z,100356.81
2023-03-29T11:08:31.654Z,100355.97
2023-03-29T11:13:42.905Z,100353.31
2023-03-29T11:19:25.984Z,100352.09
2023-03-29T11:24:38.280Z,100358.16
2023-03-29T11:29:58.642Z,100354.91
2023-03-29T11:35:18.581Z,100360.91
2023-03-29T11:41:02.853Z,100364.50
2023-03-29T11:46:29.572Z,100354.44
2023-03-29T11:51:34.294Z,100354.00
2023-03-29T11:56:55.127Z,100352.75
2023-03-29T12:02:05.126Z,100360.63
2023-03-29T12:07:19.834Z,100349.41
2023-03-29T12:12:34.975Z,100335.38
2023-03-29T12:17:54.858Z,100333.47
2023-03-29T12:22:56.695Z,100347.63
2023-03-29T12:28:15.109Z,100353.38
2023-03-29T12:33:25.815Z,100366.88
2023-03-29T12:38:53.333Z,100375.09
2023-03-29T12:44:16.546Z,100390.34
2023-03-29T12:49:35.920Z,100396.75
2023-03-29T12:54:37.482Z,100394.78
2023-03-29T12:59:44.176Z,100407.50
2023-03-29T13:04:57.520Z,100426.00
2023-03-29T13:10:08.177Z,100458.97
2023-03-29T13:15:16.781Z,100457.66
2023-03-29T13:20:21.872Z,100446.88
2023-03-29T13:25:42.114Z,100423.38
2023-03-29T13:31:01.129Z,100394.00
2023-03-29T13:36:23.349Z,100392.47
2023-03-29T13:41:40.508Z,100394.03
2023-03-29T13:46:43.127Z,100382.81
2023-03-29T13:52:02.763Z,100371.94
2023-03-29T13:57:25.124Z,100378.28
2023-03-29T14:02:37.888Z,100366.66
2023-03-29T14:07:44.673Z,100364.72
2023-03-29T14:12:47.505Z,100354.56
2023-03-29T14:17:49.424Z,100351.69
2023-03-29T14:22:51.837Z,100330.84
2023-03-29T14:27:55.822Z,100323.22
2023-03-29T14:32:57.598Z,100313.72
2023-03-29T14:38:00.511Z,100306.50
2023-03-29T14:43:07.965Z,100302.16
2023-03-29T14:48:13.399Z,100272.31
2023-03-29T14:53:23.576Z,100266.22
2023-03-29T14:58:32.747Z,100268.38
2023-03-29T15:03:54.929Z,100256.91
2023-03-29T15:09:06.005Z,100252.94
2023-03-29T15:14:15.595Z,100242.16
2023-03-29T15:19:24.925Z,100230.06
2023-03-29T15:24:32.717Z,100224.06
2023-03-29T15:29:42.081Z,100222.16
2023-03-29T15:34:43.701Z,100218.00
2023-03-29T15:39:45.289Z,100210.78
2023-03-29T15:44:46.845Z,100205.88
2023-03-29T15:49:48.417Z,100190.34
2023-03-29T15:54:49.920Z,100189.22
2023-03-29T15:59:51.532Z,100174.00
2023-03-29T16:04:53.440Z,100177.00
2023-03-29T16:09:54.912Z,100184.63
2023-03-29T16:14:56.454Z,100188.44
2023-03-29T16:19:57.983Z,100186.09
2023-03-29T16:24:59.503Z,100178.84
2023-03-29T16:30:01.140Z,100167.66
2023-03-29T16:35:04.549Z,100163.19
2023-03-29T16:40:07.777Z,100162.25
2023-03-29T16:45:13.900Z,100148.00
2023-03-29T16:50:18.841Z,100156.78
2023-03-29T16:55:20.538Z,100156.19
2023-03-29T17:00:22.249Z,100139.66
2023-03-29T17:05:25.267Z,100130.22
2023-03-29T17:10:26.804Z,100131.72
2023-03-29T17:15:28.636Z,100137.88
2023-03-29T17:20:31.054Z,100119.06
2023-03-29T17:25:32.568Z,100125.31
2023-03-29T17:30:35.003Z,100127.97
2023-03-29T17:35:36.776Z,100123.38
2023-03-29T17:40:38.573Z,100119.88
2023-03-29T17:45:42.256Z,100131.84
2023-03-29T17:50:43.725Z,100130.03
2023-03-29T17:55:45.395Z,100130.97
2023-03-29T18:00:46.948Z,100123.91
2023-03-29T18:05:48.521Z,100117.28
2023-03-29T18:10:50.092Z,100110.69
2023-03-29T18:15:56.422Z,100104.41
2023-03-29T18:20:58.173Z,100122.28
2023-03-29T18:26:02.814Z,100116.44
2023-03-29T18:31:05.914Z,100120.38
2023-03-29T18:36:12.692Z,100122.31
2023-03-29T18:41:14.935Z,100124.22
2023-03-29T18:46:16.496Z,100129.63
2023-03-29T18:51:18.033Z,100128.09
2023-03-29T18:56:19.621Z,100118.91
2023-03-29T19:01:23.312Z,100128.38
2023-03-29T19:06:24.991Z,100120.63
2023-03-29T19:11:28.839Z,100115.03
2023-03-29T19:16:30.727Z,100113.75
2023-03-29T19:21:33.233Z,100100.44
2023-03-29T19:26:35.362Z,100095.84
2023-03-29T19:31:37.914Z,100081.91
2023-03-29T19:36:39.777Z,100074.16
2023-03-29T19:41:41.948Z,100064.50
2023-03-29T19:46:43.587Z,100059.59
2023-03-29T19:51:45.506Z,100055.56
2023-03-29T19:56:47.180Z,100050.22
2023-03-29T20:01:51.837Z,100050.34
2023-03-29T20:06:53.383Z,100039.50
2023-03-29T20:11:54.971Z,100043.78
2023-03-29T20:16:56.640Z,100026.53
2023-03-29T20:21:58.847Z,100024.25
2023-03-29T20:27:00.735Z,100014.94
2023-03-29T20:32:02.343Z,100004.94
2023-03-29T20:37:03.968Z,100002.06
2023-03-29T20:42:06.359Z,99988.38
2023-03-29T20:47:08.340Z,99991.69
2023-03-29T20:52:15.573Z,99974.56
2023-03-29T20:57:20.651Z,99974.22
2023-03-29T21:02:22.901Z,99960.22
2023-03-29T21:07:24.566Z,99939.19
2023-03-29T21:12:26.086Z,99923.69
2023-03-29T21:17:27.667Z,99904.75
2023-03-29T21:22:29.354Z,99880.22
2023-03-29T21:27:30.844Z,99882.78
2023-03-29T21:32:32.459Z,99876.19
2023-03-29T21:37:36.249Z,99872.59
2023-03-29T21:42:37.870Z,99859.25
2023-03-29T21:47:39.492Z,99859.66
2023-03-29T21:52:41.006Z,99856.72
2023-03-29T21:57:42.554Z,99858.19
2023-03-29T22:02:45.898Z,99855.75
2023-03-29T22:07:50.402Z,99849.69
2023-03-29T22:12:52.552Z,99848.94
2023-03-29T22:17:57.743Z,99856.66
2023-03-29T22:23:00.801Z,99863.56
2023-03-29T22:28:02.307Z,99866.38
2023-03-29T22:33:03.910Z,99871.63
2023-03-29T22:38:05.488Z,99861.13
2023-03-29T22:43:07.032Z,99865.56
2023-03-29T22:48:08.597Z,99870.28
2023-03-29T22:53:10.294Z,99873.63
2023-03-29T22:58:11.862Z,99887.47
2023-03-29T23:03:13.420Z,99889.91
2023-03-29T23:08:14.947Z,99897.59
2023-03-29T23:13:23.558Z,99888.25
2023-03-29T23:18:26.033Z,99886.91
2023-03-29T23:23:28.239Z,99886.38
2023-03-29T23:28:31.673Z,99882.75
2023-03-29T23:33:35.193Z,99891.56
2023-03-29T23:38:38.747Z,99868.38
2023-03-29T23:43:42.145Z,99876.09
2023-03-29T23:48:45.950Z,99860.88
2023-03-29T23:53:47.795Z,99839.88
2023-03-29T23:58:49.884Z,99867.22
